Terminal Aerodrome Forecast
Issued by NWS

Home | Current Version | Previous Version | Text Only | Print | Product List | Glossary On
Versions: 1 2 3 4 5 6 7 8 9 10 11 12 13 14 15 16 17 18 19
000
FTUS43 KMPX 032341
TAFAXN
TAF
KAXN 032341Z 0400/0424 14010KT P6SM SKC
     FM040800 11008KT 4SM BR OVC005
     FM041600 13010KT P6SM SCT010 BKN120
     FM042200 15012KT P6SM BKN120=

USA.gov is the U.S. government's official web portal to all federal, state and local government web resources and services.